Time;durP1;ratioP1;P1;durP2;ratioP2;P2;SDS_P1;SDS_P2;PMS_P1;PMS_P2;Temp;Humidity;BMP_temperature;BMP_pressure;BME280_temperature;BME280_humidity;BME280_pressure;Samples;Min_cycle;Max_cycle;Signal;HPM_P1;HPM_P2
2022/09/20 00:01:21;;;;;;;5.07;1.60;;;;;;;12.23;100.00;102133.94;6124835;23;20456;-69
2022/09/20 00:03:52;;;;;;;4.87;1.80;;;;;;;11.65;100.00;102023.16;6148359;23;20195;-70
2022/09/20 00:06:22;;;;;;;4.40;1.23;;;;;;;11.34;100.00;101997.16;6150674;23;20431;-70
2022/09/20 00:08:48;;;;;;;4.90;1.50;;;;;;;11.45;100.00;102037.03;6150305;23;20387;-69
2022/09/20 00:11:19;;;;;;;6.83;1.50;;;;;;;11.99;100.00;102133.91;6150063;23;20377;-69
2022/09/20 00:13:47;;;;;;;3.83;1.07;;;;;;;11.84;100.00;102062.22;6147141;23;20483;-69
2022/09/20 00:16:16;;;;;;;3.00;1.00;;;;;;;11.87;100.00;102096.84;6149428;23;20459;-70
2022/09/20 00:18:42;;;;;;;4.10;1.40;;;;;;;11.26;100.00;101997.19;6150352;23;20711;-69
2022/09/20 00:21:16;;;;;;;4.50;1.30;;;;;;;11.95;100.00;102123.69;6149911;23;20424;-69
2022/09/20 00:23:41;;;;;;;3.57;1.20;;;;;;;12.06;100.00;102125.13;6150227;23;20168;-69
2022/09/20 00:26:07;;;;;;;2.83;0.93;;;;;;;11.34;100.00;101993.59;6149718;23;20381;-72
2022/09/20 00:28:33;;;;;;;3.43;1.13;;;;;;;11.85;100.00;102097.00;6150292;23;20153;-72
2022/09/20 00:30:59;;;;;;;4.80;1.10;;;;;;;11.26;100.00;102018.69;6123196;23;20192;-72
2022/09/20 00:35:06;;;;;;;4.20;1.30;;;;;;;11.30;100.00;102028.88;6149165;23;20415;-72
2022/09/20 00:36:14;;;;;;;4.43;1.13;;;;;;;11.76;100.00;102141.88;6149955;23;20395;-71
2022/09/20 00:38:40;;;;;;;3.80;1.10;;;;;;;11.20;100.00;102048.91;6123590;23;20435;-72
2022/09/20 00:41:06;;;;;;;5.20;1.30;;;;;;;11.74;100.00;102145.75;6150460;23;20448;-72
2022/09/20 00:43:45;;;;;;;6.67;1.47;;;;;;;10.74;100.00;101997.72;6148450;23;20799;-72
2022/09/20 00:46:20;;;;;;;5.43;1.17;;;;;;;11.97;100.00;102129.72;6122833;23;20155;-71
2022/09/20 00:48:47;;;;;;;5.13;1.20;;;;;;;10.99;100.00;102074.50;6148775;23;20461;-72
2022/09/20 00:51:16;;;;;;;5.03;1.30;;;;;;;10.93;100.00;102069.78;6123169;23;20389;-72
2022/09/20 00:53:47;;;;;;;6.10;1.30;;;;;;;11.09;100.00;102068.91;6149360;23;20973;-72
2022/09/20 00:56:17;;;;;;;3.70;1.27;;;;;;;11.90;100.00;102140.34;6150151;23;20373;-72
2022/09/20 00:58:53;;;;;;;7.90;1.40;;;;;;;12.02;100.00;102138.09;6149844;23;20415;-72
2022/09/20 01:01:18;;;;;;;3.70;1.20;;;;;;;11.28;100.00;102047.03;6149421;23;20499;-72
2022/09/20 01:03:44;;;;;;;3.60;1.00;;;;;;;10.80;100.00;101986.28;6148554;23;20993;-72
2022/09/20 01:06:14;;;;;;;4.60;1.30;;;;;;;11.27;100.00;102056.09;6149150;23;20160;-72
2022/09/20 01:08:43;;;;;;;5.90;1.47;;;;;;;11.75;100.00;102148.28;6123594;23;20425;-72
2022/09/20 01:11:09;;;;;;;5.37;1.43;;;;;;;10.73;100.00;101956.63;6124481;23;20416;-72
2022/09/20 01:13:34;;;;;;;4.27;1.30;;;;;;;11.94;100.00;102149.72;6121407;23;20463;-71
2022/09/20 01:16:02;;;;;;;7.10;1.50;;;;;;;10.58;100.00;101969.06;6149055;23;20159;-72
2022/09/20 01:18:30;;;;;;;7.53;2.13;;;;;;;11.23;100.00;102035.16;6122551;23;20157;-72
2022/09/20 01:20:57;;;;;;;5.20;1.73;;;;;;;10.27;100.00;101942.97;6147745;23;20455;-72
2022/09/20 01:23:44;;;;;;;3.77;1.00;;;;;;;11.47;100.00;102139.81;6122840;23;20405;-72
2022/09/20 01:26:37;;;;;;;3.97;0.87;;;;;;;11.75;100.00;102140.22;6147544;23;20358;-72
2022/09/20 01:29:11;;;;;;;8.00;1.20;;;;;;;11.70;100.00;102141.75;6122668;23;20381;-72
2022/09/20 01:31:45;;;;;;;6.03;1.50;;;;;;;10.56;100.00;101923.63;6147033;23;20384;-72
2022/09/20 01:34:16;;;;;;;4.67;1.27;;;;;;;11.41;100.00;102048.31;6120385;23;20409;-72
2022/09/20 01:36:51;;;;;;;4.73;1.20;;;;;;;11.43;100.00;102049.81;6122252;23;20381;-72
2022/09/20 01:39:43;;;;;;;5.20;1.20;;;;;;;12.05;100.00;102129.66;6146571;23;20699;-72
2022/09/20 01:42:11;;;;;;;5.40;1.53;;;;;;;9.78;100.00;101792.91;6134230;23;20456;-75
2022/09/20 01:45:13;;;;;;;6.90;1.47;;;;;;;11.88;100.00;102145.03;6116436;23;20837;-77
2022/09/20 01:47:48;;;;;;;4.87;1.40;;;;;;;12.15;100.00;102156.31;6120979;23;20453;-75
2022/09/20 01:50:38;;;;;;;7.90;1.10;;;;;;;11.90;100.00;102158.31;6120618;23;20417;-75
2022/09/20 01:53:25;;;;;;;7.67;1.50;;;;;;;12.05;100.00;102172.69;6094677;23;20427;-75
2022/09/20 01:55:59;;;;;;;7.90;1.60;;;;;;;12.10;100.00;102169.50;6118854;23;20824;-74
2022/09/20 01:58:37;;;;;;;4.00;1.37;;;;;;;12.04;100.00;102208.69;6093849;23;20762;-74
2022/09/20 02:01:18;;;;;;;3.00;0.97;;;;;;;12.07;100.00;102177.91;6118415;23;20405;-75
2022/09/20 02:03:58;;;;;;;3.27;0.93;;;;;;;11.89;100.00;102172.75;6119355;23;20492;-74
2022/09/20 02:06:27;;;;;;;2.80;0.90;;;;;;;11.95;100.00;102164.84;6119826;23;20394;-74
2022/09/20 02:09:11;;;;;;;4.43;1.27;;;;;;;11.96;100.00;102168.38;6093003;23;20389;-75
2022/09/20 02:12:10;;;;;;;3.03;0.97;;;;;;;9.36;100.00;101736.88;6119860;23;20840;-75
2022/09/20 02:15:07;;;;;;;4.30;1.00;;;;;;;9.56;100.00;101766.81;6118543;23;20370;-75
2022/09/20 02:17:48;;;;;;;4.97;1.20;;;;;;;11.58;100.00;102160.09;6094707;23;20377;-76
2022/09/20 02:20:30;;;;;;;4.17;0.97;;;;;;;10.92;100.00;102105.69;6093790;23;20381;-76
2022/09/20 02:23:15;;;;;;;4.40;1.23;;;;;;;10.48;100.00;102032.81;6122052;23;20971;-76
2022/09/20 02:25:51;;;;;;;2.30;0.97;;;;;;;11.73;100.00;102169.09;6121821;23;20377;-76
2022/09/20 02:28:38;;;;;;;5.30;1.17;;;;;;;11.77;100.00;102161.53;6097692;23;20476;-75
2022/09/20 02:31:21;;;;;;;6.80;1.07;;;;;;;9.64;100.00;101864.09;6120677;23;20416;-76
2022/09/20 02:34:05;;;;;;;6.20;1.73;;;;;;;11.41;100.00;102161.16;6096752;23;20439;-75
2022/09/20 02:36:46;;;;;;;3.70;1.17;;;;;;;11.51;100.00;102164.47;6121609;23;20373;-75
2022/09/20 02:39:18;;;;;;;3.17;1.10;;;;;;;10.85;100.00;102067.97;6096209;23;20378;-76
2022/09/20 02:42:08;;;;;;;2.90;1.00;;;;;;;10.92;100.00;102084.22;6094108;23;20441;-76
2022/09/20 02:44:54;;;;;;;2.23;0.80;;;;;;;11.40;100.00;102171.06;6122536;23;20381;-75
2022/09/20 02:47:30;;;;;;;2.60;1.10;;;;;;;10.34;100.00;102051.22;6095337;23;20378;-75
2022/09/20 02:50:02;;;;;;;3.50;1.20;;;;;;;10.31;100.00;102067.66;6097070;23;20377;-76
2022/09/20 02:52:42;;;;;;;2.07;0.90;;;;;;;11.18;100.00;102172.63;6122455;23;20876;-75
2022/09/20 02:55:16;;;;;;;3.33;1.13;;;;;;;11.44;100.00;102168.88;6122330;23;20809;-75
2022/09/20 02:58:00;;;;;;;3.10;1.40;;;;;;;9.21;100.00;101830.41;6095401;23;20384;-76
2022/09/20 03:00:36;;;;;;;1.20;0.80;;;;;;;10.82;100.00;102040.63;6122211;23;20381;-76
2022/09/20 03:03:30;;;;;;;1.83;0.80;;;;;;;11.29;100.00;102134.66;6122433;23;20408;-76
2022/09/20 03:06:12;;;;;;;4.67;0.90;;;;;;;11.42;100.00;102170.88;6123487;23;20385;-75
2022/09/20 03:09:10;;;;;;;4.03;1.20;;;;;;;10.57;100.00;102023.72;6122607;23;20361;-75
2022/09/20 03:12:11;;;;;;;2.83;1.17;;;;;;;11.61;100.00;102158.91;6096651;23;20370;-75
2022/09/20 03:14:50;;;;;;;3.83;1.30;;;;;;;9.32;100.00;101838.13;6123127;23;20364;-75
2022/09/20 03:17:43;;;;;;;6.03;1.20;;;;;;;11.49;100.00;102153.09;6095765;23;20432;-75
2022/09/20 03:20:16;;;;;;;3.27;0.80;;;;;;;9.48;100.00;101877.47;6120860;23;20374;-75
2022/09/20 03:22:55;;;;;;;4.07;1.00;;;;;;;9.55;100.00;101899.09;6121124;23;20428;-76
2022/09/20 03:25:40;;;;;;;4.00;1.00;;;;;;;11.12;100.00;102151.81;6120540;23;20362;-75
2022/09/20 03:28:24;;;;;;;2.80;0.83;;;;;;;11.27;100.00;102151.94;6095829;23;20444;-75
2022/09/20 03:30:58;;;;;;;2.87;0.83;;;;;;;11.29;100.00;102144.56;6117812;23;20369;-74
2022/09/20 03:33:51;;;;;;;3.03;1.50;;;;;;;11.33;100.00;102151.25;6121356;23;20898;-74
2022/09/20 03:36:40;;;;;;;1.73;0.80;;;;;;;11.26;100.00;102152.97;6094792;23;20382;-75
2022/09/20 03:39:28;;;;;;;5.57;1.17;;;;;;;11.48;100.00;102149.53;6120220;23;20370;-74
2022/09/20 03:42:07;;;;;;;3.43;0.87;;;;;;;9.03;100.00;101838.59;6120231;23;20803;-74
2022/09/20 03:45:14;;;;;;;2.67;1.00;;;;;;;9.86;100.00;101913.47;6120927;23;20850;-75
2022/09/20 03:48:12;;;;;;;2.90;0.90;;;;;;;11.46;100.00;102151.56;6121412;23;20692;-75
2022/09/20 03:51:02;;;;;;;4.20;0.90;;;;;;;9.02;100.00;101810.97;6123850;23;20401;-76
2022/09/20 03:53:34;;;;;;;5.03;1.03;;;;;;;11.24;100.00;102134.31;6123370;23;20795;-75
2022/09/20 03:56:45;;;;;;;4.90;1.60;;;;;;;11.33;100.00;102162.00;6121151;23;20366;-75
2022/09/20 03:59:21;;;;;;;3.23;1.00;;;;;;;10.45;100.00;101940.09;6055115;23;20389;-75
2022/09/20 04:01:57;;;;;;;2.27;0.90;;;;;;;11.43;100.00;102180.66;6120425;23;20512;-75
2022/09/20 04:04:40;;;;;;;2.17;0.70;;;;;;;11.44;100.00;102136.63;6120615;23;20370;-75
2022/09/20 04:07:12;;;;;;;3.13;0.80;;;;;;;11.34;100.00;102141.34;6094803;23;20500;-75
2022/09/20 04:10:20;;;;;;;2.10;0.80;;;;;;;9.87;100.00;101963.41;6094253;23;20389;-75
2022/09/20 04:13:04;;;;;;;2.03;0.73;;;;;;;9.03;100.00;101764.50;6120311;23;20480;-75
2022/09/20 04:15:39;;;;;;;1.70;0.80;;;;;;;9.17;100.00;101807.66;6093694;23;20770;-75
2022/09/20 04:18:30;;;;;;;5.50;1.00;;;;;;;10.21;100.00;102001.75;6120271;23;20400;-74
2022/09/20 04:20:58;;;;;;;2.83;0.80;;;;;;;11.47;100.00;102145.19;6121122;23;20500;-75
2022/09/20 04:23:41;;;;;;;1.80;0.70;;;;;;;8.81;100.00;101733.84;6121370;23;20480;-75
2022/09/20 04:26:07;;;;;;;2.83;0.80;;;;;;;9.46;100.00;101925.84;6095163;23;20777;-75
2022/09/20 04:28:47;;;;;;;4.50;0.90;;;;;;;9.37;100.00;101881.28;6120852;23;20382;-75
2022/09/20 04:31:39;;;;;;;2.53;1.10;;;;;;;10.28;100.00;102010.84;6091260;23;20382;-75
2022/09/20 04:34:15;;;;;;;2.33;0.97;;;;;;;8.79;100.00;101770.66;6094752;23;20388;-75
2022/09/20 04:37:05;;;;;;;1.20;0.73;;;;;;;10.41;100.00;102067.47;6121317;23;20372;-76
2022/09/20 04:39:36;;;;;;;2.73;0.97;;;;;;;10.56;100.00;102079.25;6095823;23;20425;-75
2022/09/20 04:42:23;;;;;;;3.47;0.90;;;;;;;11.30;100.00;102173.94;6094139;23;20452;-75
2022/09/20 04:45:07;;;;;;;1.87;0.70;;;;;;;10.48;100.00;102091.81;6119710;23;20377;-75
2022/09/20 04:48:09;;;;;;;3.87;1.10;;;;;;;10.83;100.00;102190.75;6093312;23;20404;-75
2022/09/20 04:50:37;;;;;;;2.37;1.00;;;;;;;10.89;100.00;102202.69;6121246;23;20362;-75
2022/09/20 04:53:37;;;;;;;2.63;1.00;;;;;;;8.72;100.00;101873.09;6121679;23;20868;-75
2022/09/20 04:56:48;;;;;;;1.87;0.90;;;;;;;10.83;100.00;102198.81;6119087;23;20668;-75
2022/09/20 04:59:45;;;;;;;1.60;0.90;;;;;;;9.41;100.00;101980.91;6065713;23;20377;-75
2022/09/20 05:02:40;;;;;;;1.90;0.80;;;;;;;10.90;100.00;102200.81;6095614;23;20551;-75
2022/09/20 05:05:18;;;;;;;3.73;0.90;;;;;;;10.73;100.00;102202.66;6096048;23;20385;-74
2022/09/20 05:08:06;;;;;;;6.73;1.00;;;;;;;9.68;100.00;102079.72;6121448;23;20456;-74
2022/09/20 05:11:07;;;;;;;5.37;1.00;;;;;;;10.51;100.00;102204.97;6095568;23;20769;-74
2022/09/20 05:14:01;;;;;;;2.93;0.80;;;;;;;9.61;100.00;102102.84;6094701;23;20416;-74
2022/09/20 05:16:41;;;;;;;3.90;1.00;;;;;;;9.71;100.00;102079.41;6095172;23;20768;-75
2022/09/20 05:19:42;;;;;;;2.20;0.80;;;;;;;9.43;100.00;102065.44;6122158;23;20377;-74
2022/09/20 05:22:38;;;;;;;2.67;0.90;;;;;;;9.88;100.00;102157.19;6091620;23;20840;-75
2022/09/20 05:25:24;;;;;;;4.27;1.10;;;;;;;10.37;100.00;102237.81;6121093;23;20370;-75
2022/09/20 05:28:05;;;;;;;2.40;0.80;;;;;;;7.95;100.00;101830.22;6116563;23;20369;-76
2022/09/20 05:30:56;;;;;;;3.10;1.17;;;;;;;9.54;100.00;102082.19;6116680;23;20376;-75
2022/09/20 05:33:53;;;;;;;3.20;1.27;;;;;;;9.06;100.00;102030.97;6118482;23;20401;-75
2022/09/20 05:36:40;;;;;;;2.40;1.50;;;;;;;10.49;100.00;102236.50;6124509;23;20382;-74
2022/09/20 05:39:18;;;;;;;5.23;0.73;;;;;;;10.44;100.00;102240.66;6118785;23;20362;-74
2022/09/20 05:41:59;;;;;;;3.00;1.20;;;;;;;10.59;100.00;102234.53;6116698;23;20771;-76
2022/09/20 05:44:53;;;;;;;2.50;0.90;;;;;;;10.70;100.00;102281.66;6085611;23;20381;-74
2022/09/20 05:47:32;;;;;;;3.07;1.00;;;;;;;10.73;100.00;102237.53;6092448;23;20880;-75
2022/09/20 05:50:28;;;;;;;2.23;1.17;;;;;;;10.97;100.00;102237.59;6095156;23;20385;-74
2022/09/20 05:53:25;;;;;;;3.30;1.40;;;;;;;10.30;100.00;102159.00;6095229;23;20436;-74
2022/09/20 05:55:59;;;;;;;2.50;1.37;;;;;;;9.16;100.00;101951.34;6095744;23;20464;-74
2022/09/20 05:58:38;;;;;;;3.17;1.63;;;;;;;10.89;100.00;102258.22;6095612;23;20464;-74
2022/09/20 06:01:17;;;;;;;4.40;1.70;;;;;;;9.92;100.00;102097.75;6094699;23;20476;-74
2022/09/20 06:03:54;;;;;;;4.83;1.80;;;;;;;10.16;100.00;102193.47;6093110;23;20417;-74
2022/09/20 06:06:38;;;;;;;2.83;1.80;;;;;;;10.80;100.00;102266.25;6095693;23;20840;-74
2022/09/20 06:09:28;;;;;;;5.90;1.53;;;;;;;10.74;100.00;102268.75;6096029;23;20457;-74
2022/09/20 06:12:10;;;;;;;3.27;2.20;;;;;;;10.38;100.00;102175.94;6120399;23;20784;-74
2022/09/20 06:14:39;;;;;;;2.60;1.93;;;;;;;10.73;100.00;102262.56;6095477;23;20416;-74
2022/09/20 06:17:26;;;;;;;2.30;1.73;;;;;;;10.91;100.00;102265.09;6094674;23;20390;-74
2022/09/20 06:19:55;;;;;;;3.17;1.70;;;;;;;10.74;100.00;102258.03;6094528;23;20377;-74
2022/09/20 06:22:38;;;;;;;3.47;1.30;;;;;;;8.89;100.00;101939.06;6094842;23;20524;-74
2022/09/20 06:25:07;;;;;;;2.77;1.20;;;;;;;10.82;100.00;102266.94;6094810;23;20378;-74
2022/09/20 06:27:40;;;;;;;2.77;1.37;;;;;;;9.39;100.00;102073.94;6120403;23;20374;-74
2022/09/20 06:30:18;;;;;;;3.50;1.20;;;;;;;9.86;100.00;102078.78;6122540;23;20392;-74
2022/09/20 06:33:20;;;;;;;2.60;1.20;;;;;;;10.08;100.00;102128.25;6120818;23;20876;-74
2022/09/20 06:41:25;;;;;;;3.90;1.10;;;;;;;10.41;100.00;102177.47;6071179;23;20818;-74
2022/09/20 06:42:10;;;;;;;3.90;1.37;;;;;;;9.14;100.00;101894.50;6120109;23;20519;-74
2022/09/20 06:44:40;;;;;;;4.97;2.30;;;;;;;10.14;100.00;102101.63;6121359;23;20782;-74
2022/09/20 06:47:10;;;;;;;3.87;1.67;;;;;;;10.44;100.00;102138.75;6119767;23;20158;-74
2022/09/20 06:49:35;;;;;;;3.60;1.17;;;;;;;10.51;100.00;102156.69;6096422;23;20476;-74
2022/09/20 06:52:06;;;;;;;3.00;1.43;;;;;;;10.16;100.00;102019.19;6120011;23;20433;-74
2022/09/20 06:54:32;;;;;;;6.00;1.37;;;;;;;10.69;100.00;102144.97;6121460;23;20142;-74
2022/09/20 06:57:02;;;;;;;4.30;1.30;;;;;;;10.55;100.00;102063.31;6120449;23;20385;-74
2022/09/20 06:59:27;;;;;;;6.30;1.63;;;;;;;11.31;100.00;102212.38;6091373;23;20483;-74
2022/09/20 07:01:53;;;;;;;2.00;1.20;;;;;;;10.67;100.00;102074.53;6118224;23;20522;-74
2022/09/20 07:04:18;;;;;;;6.47;1.80;;;;;;;10.74;100.00;102043.34;6121317;23;20162;-74
2022/09/20 07:06:43;;;;;;;4.97;1.53;;;;;;;10.91;100.00;102073.66;6096247;23;20154;-74
2022/09/20 07:09:10;;;;;;;2.00;0.90;;;;;;;11.68;100.00;102130.31;6121568;23;20165;-74
2022/09/20 07:11:35;;;;;;;3.87;1.37;;;;;;;11.24;100.00;102080.63;6097006;23;20164;-74
2022/09/20 07:14:01;;;;;;;5.30;1.30;;;;;;;10.52;100.00;101930.34;6122139;23;20385;-74
2022/09/20 07:16:26;;;;;;;2.03;0.97;;;;;;;11.12;100.00;102048.94;6119633;23;20150;-74
2022/09/20 07:18:52;;;;;;;3.67;1.37;;;;;;;11.26;100.00;102069.72;6123085;23;20384;-73
2022/09/20 07:21:19;;;;;;;5.03;1.83;;;;;;;11.10;100.00;101971.22;6123419;23;20178;-74
2022/09/20 07:23:47;;;;;;;3.80;1.23;;;;;;;12.55;100.00;102184.81;6122432;23;20525;-74
2022/09/20 07:26:18;;;;;;;5.60;1.20;;;;;;;13.16;100.00;102324.91;6096378;23;20452;-74
2022/09/20 07:28:43;;;;;;;5.97;1.63;;;;;;;10.96;100.00;101929.00;6096570;23;20748;-74
2022/09/20 07:31:09;;;;;;;5.07;1.40;;;;;;;11.27;100.00;102092.88;6122142;23;20465;-75
2022/09/20 07:33:35;;;;;;;2.83;0.70;;;;;;;10.03;100.00;101922.34;6095313;23;20192;-75
2022/09/20 07:36:01;;;;;;;2.20;0.80;;;;;;;10.84;100.00;102141.44;6095913;23;20200;-74
2022/09/20 07:38:27;;;;;;;2.10;0.93;;;;;;;10.55;100.00;102079.41;6097228;23;20394;-74
2022/09/20 07:41:01;;;;;;;1.10;0.60;;;;;;;10.31;100.00;102008.66;6096662;23;20185;-74
2022/09/20 07:43:27;;;;;;;2.27;0.90;;;;;;;11.18;100.00;102164.56;6095023;23;20189;-74
2022/09/20 07:45:54;;;;;;;4.10;0.67;;;;;;;10.43;100.00;102001.09;6123001;23;20394;-74
2022/09/20 07:48:25;;;;;;;2.63;0.87;;;;;;;10.29;100.00;101989.22;6122423;23;20841;-74
2022/09/20 07:50:52;;;;;;;1.27;0.60;;;;;;;10.61;100.00;102007.09;6096044;23;20425;-74
2022/09/20 07:53:17;;;;;;;2.73;0.77;;;;;;;10.41;100.00;102043.34;6121064;23;20397;-74
2022/09/20 07:55:43;;;;;;;2.83;0.87;;;;;;;10.96;100.00;102065.91;6122538;23;20749;-75
2022/09/20 07:58:08;;;;;;;3.73;0.90;;;;;;;10.40;100.00;101986.19;6120728;23;20154;-75
2022/09/20 08:00:34;;;;;;;5.03;0.93;;;;;;;11.69;100.00;102221.53;6092550;23;20584;-76
2022/09/20 08:02:59;;;;;;;2.50;1.30;;;;;;;11.99;100.00;102278.28;6120146;23;20645;-76
2022/09/20 08:05:26;;;;;;;4.67;1.10;;;;;;;12.52;100.00;102349.34;6094317;23;20691;-76
2022/09/20 08:07:51;;;;;;;2.80;1.20;;;;;;;12.55;100.00;102340.09;6094521;23;20164;-75
2022/09/20 08:10:17;;;;;;;3.07;1.10;;;;;;;12.28;100.00;102274.13;6121178;23;20377;-76
2022/09/20 08:12:42;;;;;;;2.80;0.90;;;;;;;11.15;100.00;102062.03;6093873;23;20166;-76
2022/09/20 08:15:08;;;;;;;3.37;1.10;;;;;;;10.59;100.00;101982.31;6093954;23;20154;-76
2022/09/20 08:17:34;;;;;;;3.37;0.80;;;;;;;11.21;100.00;102045.22;6094408;23;20601;-76
2022/09/20 08:19:59;;;;;;;1.43;0.70;;;;;;;11.58;100.00;102095.59;6121332;23;20853;-77
2022/09/20 08:22:25;;;;;;;2.87;0.83;;;;;;;12.27;100.00;102136.09;6091192;23;20484;-76
2022/09/20 08:24:50;;;;;;;1.53;0.70;;;;;;;10.85;100.00;101944.50;6120328;23;20158;-76
2022/09/20 08:27:16;;;;;;;1.40;0.70;;;;;;;11.12;100.00;102040.88;6119027;23;20658;-76
2022/09/20 08:29:42;;;;;;;1.47;0.70;;;;;;;12.52;100.00;102201.34;6094592;23;20225;-77
2022/09/20 08:32:07;;;;;;;2.73;0.70;;;;;;;12.49;100.00;102190.09;6119825;23;20521;-78
2022/09/20 08:34:33;;;;;;;1.03;0.67;;;;;;;12.10;100.00;102129.16;6093613;23;20229;-76
2022/09/20 08:36:58;;;;;;;2.20;0.70;;;;;;;11.38;100.00;102046.81;6117306;23;20495;-77
2022/09/20 08:39:24;;;;;;;2.20;0.90;;;;;;;11.28;100.00;102009.44;6120114;23;20157;-77
2022/09/20 08:42:11;;;;;;;2.13;0.90;;;;;;;13.61;100.00;102341.28;6094303;23;20197;-75
2022/09/20 08:44:51;;;;;;;2.40;0.70;;;;;;;11.38;100.00;101917.88;6092909;23;20197;-76
2022/09/20 08:47:22;;;;;;;1.27;0.70;;;;;;;13.27;100.00;102237.47;6094798;23;20418;-76
2022/09/20 08:49:53;;;;;;;1.70;0.60;;;;;;;12.95;100.00;102195.47;6096005;23;20712;-74
2022/09/20 08:52:30;;;;;;;3.00;1.03;;;;;;;11.03;100.00;101909.34;6121298;23;20417;-77
2022/09/20 08:54:58;;;;;;;1.43;0.90;;;;;;;12.78;100.00;102178.59;6096389;23;20520;-76
2022/09/20 08:57:28;;;;;;;3.03;0.77;;;;;;;12.78;100.00;102219.00;6096296;23;20397;-76
2022/09/20 08:59:53;;;;;;;3.07;0.70;;;;;;;12.75;100.00;102193.25;6095553;23;20837;-77
2022/09/20 09:02:20;;;;;;;1.23;0.60;;;;;;;11.79;100.00;102021.59;6120326;23;20446;-76
2022/09/20 09:04:48;;;;;;;1.93;0.70;;;;;;;11.69;100.00;102003.00;6121619;23;20157;-76
2022/09/20 09:07:20;;;;;;;2.43;0.97;;;;;;;13.15;100.00;102198.50;6120977;23;20653;-77
2022/09/20 09:09:48;;;;;;;5.40;0.80;;;;;;;12.70;100.00;102144.53;6095037;23;20381;-77
2022/09/20 09:12:24;;;;;;;4.20;1.10;;;;;;;13.01;100.00;102200.97;6119901;23;20488;-76
2022/09/20 09:14:54;;;;;;;1.77;0.80;;;;;;;12.44;100.00;102118.00;6094784;23;20792;-76
2022/09/20 09:17:22;;;;;;;2.90;1.10;;;;;;;13.29;100.00;102279.38;6094671;23;20477;-76
2022/09/20 09:19:54;;;;;;;3.13;1.10;;;;;;;12.46;100.00;102132.09;6095487;23;20891;-76
2022/09/20 09:22:38;;;;;;;4.37;1.50;;;;;;;13.66;100.00;102338.88;6120597;23;20429;-76
2022/09/20 09:25:15;;;;;;;2.63;1.00;;;;;;;13.57;100.00;102347.03;6095568;23;20389;-76
2022/09/20 09:27:59;;;;;;;3.10;1.57;;;;;;;13.26;100.00;102351.69;6120278;23;20433;-77
2022/09/20 09:30:37;;;;;;;3.87;1.50;;;;;;;12.52;100.00;102240.88;6094317;23;20384;-75
2022/09/20 09:33:44;;;;;;;6.70;1.40;;;;;;;11.38;100.00;102145.38;6093803;23;20444;-74
2022/09/20 09:36:15;;;;;;;4.43;1.50;;;;;;;10.72;100.00;102021.19;5951887;24;20798;-75
2022/09/20 09:38:46;;;;;;;5.93;1.50;;;;;;;11.92;100.00;102247.72;5975657;23;20401;-75
2022/09/20 09:41:28;;;;;;;8.80;1.40;;;;;;;11.96;100.00;102262.50;6032149;23;20429;-75
2022/09/20 09:43:59;;;;;;;5.27;0.93;;;;;;;11.65;100.00;102216.69;6091049;23;20387;-75
2022/09/20 09:46:29;;;;;;;7.60;1.30;;;;;;;11.68;100.00;102275.47;6066615;23;20406;-77
2022/09/20 09:49:18;;;;;;;4.07;1.33;;;;;;;11.13;100.00;102199.13;6091705;23;20441;-76
2022/09/20 09:52:01;;;;;;;7.17;1.70;;;;;;;12.46;100.00;102411.13;6066320;23;20881;-76
2022/09/20 09:54:28;;;;;;;3.73;1.07;;;;;;;10.49;100.00;102080.91;6091285;23;20873;-77
2022/09/20 09:57:19;;;;;;;3.67;0.90;;;;;;;11.08;100.00;102061.88;6092168;23;20401;-75
2022/09/20 10:00:12;;;;;;;4.97;1.00;;;;;;;13.13;100.00;102363.00;6091570;23;20378;-76
2022/09/20 10:02:45;;;;;;;2.03;0.97;;;;;;;12.11;100.00;102187.28;6065802;23;20446;-77
2022/09/20 10:05:30;;;;;;;9.40;2.03;;;;;;;12.92;100.00;102363.63;6064902;23;20379;-76
2022/09/20 10:08:04;;;;;;;6.50;1.67;;;;;;;13.01;100.00;102362.56;6064246;23;20378;-76
2022/09/20 10:10:33;;;;;;;7.63;1.50;;;;;;;12.75;100.00;102284.81;6090893;23;20366;-76
2022/09/20 10:13:27;;;;;;;4.97;1.37;;;;;;;12.77;100.00;102284.63;6066084;23;20481;-75
2022/09/20 10:16:09;;;;;;;4.27;1.23;;;;;;;13.19;100.00;102393.78;6089075;23;20843;-75
2022/09/20 10:18:59;;;;;;;2.90;0.97;;;;;;;13.39;100.00;102349.19;6065271;23;20418;-76
2022/09/20 10:22:10;;;;;;;2.00;0.97;;;;;;;13.72;100.00;102347.06;6091937;23;20473;-74
2022/09/20 10:24:38;;;;;;;4.83;1.40;;;;;;;13.02;100.00;102274.56;6085571;23;20390;-75
2022/09/20 10:27:13;;;;;;;4.60;1.17;;;;;;;13.37;100.00;102350.44;6091286;23;20488;-75
2022/09/20 10:29:48;;;;;;;4.87;2.03;;;;;;;13.65;100.00;102324.53;6091819;23;20370;-76
2022/09/20 10:32:32;;;;;;;5.17;1.33;;;;;;;13.69;100.00;102339.34;6064639;23;20460;-76
2022/09/20 10:35:18;;;;;;;3.93;1.10;;;;;;;12.86;100.00;102211.69;6066298;23;20396;-76
2022/09/20 10:38:01;;;;;;;6.00;1.43;;;;;;;13.74;100.00;102252.50;6091944;23;20363;-77
2022/09/20 10:43:37;;;;;;;3.80;1.00;;;;;;;12.97;100.00;102128.81;6115912;23;20474;-76
2022/09/20 10:46:02;;;;;;;5.00;1.00;;;;;;;14.54;100.00;102321.06;6122146;23;20366;-75
2022/09/20 10:48:40;;;;;;;1.93;1.00;;;;;;;13.92;100.00;102268.34;6096996;23;20460;-75
2022/09/20 10:51:33;;;;;;;3.10;1.10;;;;;;;14.60;100.00;102323.00;6121860;23;20164;-76
2022/09/20 10:54:14;;;;;;;4.50;1.10;;;;;;;15.08;100.00;102309.84;6123208;23;20368;-75
2022/09/20 10:56:46;;;;;;;3.90;1.10;;;;;;;12.95;100.00;102015.03;6096813;23;20389;-75
2022/09/20 10:59:55;;;;;;;;;;;;;;;;;;;;;
2022/09/20 11:02:52;;;;;;;4.63;1.27;;;;;;;12.96;100.00;102028.34;6120535;23;20417;-75
2022/09/20 11:05:49;;;;;;;2.70;1.00;;;;;;;13.88;100.00;102121.38;6123285;23;20420;-75
2022/09/20 11:08:21;;;;;;;6.73;1.37;;;;;;;13.22;100.00;101967.72;6062814;23;20871;-75
2022/09/20 11:11:04;;;;;;;4.40;1.17;;;;;;;13.30;100.00;102010.75;6122400;23;20436;-74
2022/09/20 11:13:37;;;;;;;4.53;1.00;;;;;;;14.88;100.00;102193.47;6122463;23;20396;-74
2022/09/20 11:16:44;;;;;;;2.53;1.00;;;;;;;14.10;100.00;102104.19;6122250;23;20896;-74
2022/09/20 11:19:26;;;;;;;2.87;1.00;;;;;;;15.44;100.00;102338.63;6122266;23;20405;-75
2022/09/20 11:22:12;;;;;;;3.43;1.37;;;;;;;14.33;100.00;102105.88;6122666;23;20475;-75
2022/09/20 11:24:46;;;;;;;4.30;1.00;;;;;;;13.68;100.00;102154.34;6095908;23;20667;-74
2022/09/20 11:27:17;;;;;;;2.17;1.00;;;;;;;15.31;100.00;102304.22;6099119;23;20473;-75
2022/09/20 11:29:52;;;;;;;3.77;0.90;;;;;;;14.09;100.00;102131.34;6095398;23;20397;-73
2022/09/20 11:32:30;;;;;;;3.90;1.03;;;;;;;13.62;100.00;102049.91;6095632;23;20453;-73
2022/09/20 11:35:03;;;;;;;3.50;1.07;;;;;;;14.57;100.00;102110.91;6097502;23;20444;-74
2022/09/20 11:37:35;;;;;;;4.80;1.10;;;;;;;13.63;100.00;101946.47;6122056;23;20374;-74
2022/09/20 11:40:12;;;;;;;3.50;0.93;;;;;;;14.56;100.00;102101.16;6122845;23;20393;-73
2022/09/20 11:42:40;;;;;;;3.87;1.00;;;;;;;13.62;100.00;101912.44;6120949;23;20437;-73
2022/09/20 11:45:06;;;;;;;7.30;1.30;;;;;;;13.56;100.00;102035.34;6122040;23;20509;-73
2022/09/20 11:47:51;;;;;;;6.63;1.00;;;;;;;14.09;100.00;102139.44;6122131;23;20465;-74
2022/09/20 11:50:37;;;;;;;3.23;1.00;;;;;;;14.90;100.00;102272.47;6121429;23;20365;-75
2022/09/20 11:53:40;;;;;;;3.00;1.07;;;;;;;14.91;100.00;102317.34;6122744;23;20398;-75
2022/09/20 11:56:14;;;;;;;5.43;1.00;;;;;;;14.87;100.00;102316.91;6096289;23;20876;-75
2022/09/20 11:58:48;;;;;;;2.10;0.80;;;;;;;14.85;100.00;102351.34;6121577;23;20373;-74
2022/09/20 12:01:24;;;;;;;3.57;1.03;;;;;;;13.07;100.00;102038.59;6095802;23;20500;-73
2022/09/20 12:03:54;;;;;;;2.03;1.00;;;;;;;14.92;100.00;102348.72;6095246;23;20476;-74
2022/09/20 12:06:32;;;;;;;4.30;1.33;;;;;;;12.77;100.00;101961.56;6096778;23;20888;-74
2022/09/20 12:09:00;;;;;;;4.20;0.80;;;;;;;13.55;100.00;102036.38;6096543;23;20385;-74
2022/09/20 12:11:32;;;;;;;4.03;1.23;;;;;;;14.94;100.00;102149.47;6095636;23;20876;-74
2022/09/20 12:14:16;;;;;;;1.97;0.73;;;;;;;15.29;100.00;102146.78;6095927;23;20755;-74